createdAt,value
2022-08-27T00:00:47.239Z,12.40
2022-08-27T00:03:14.119Z,13.10
2022-08-27T00:05:41.321Z,11.37
2022-08-27T00:08:09.769Z,12.60
2022-08-27T00:10:36.522Z,12.50
2022-08-27T00:13:03.181Z,11.70
2022-08-27T00:15:30.074Z,11.70
2022-08-27T00:17:56.935Z,11.77
2022-08-27T00:20:26.017Z,10.10
2022-08-27T00:22:53.445Z,10.17
2022-08-27T00:25:20.958Z,10.17
2022-08-27T00:27:47.668Z,9.90
2022-08-27T00:30:16.448Z,10.40
2022-08-27T00:32:43.438Z,10.30
2022-08-27T00:35:11.633Z,10.13
2022-08-27T00:37:38.461Z,10.10
2022-08-27T00:40:07.915Z,10.10
2022-08-27T00:42:34.596Z,11.27
2022-08-27T00:45:01.377Z,11.07
2022-08-27T00:47:30.652Z,11.53
2022-08-27T00:50:18.862Z,11.37
2022-08-27T00:52:53.068Z,11.77
2022-08-27T00:55:24.844Z,11.70
2022-08-27T00:58:00.297Z,12.20
2022-08-27T01:00:29.848Z,12.47
2022-08-27T01:02:56.491Z,10.53
2022-08-27T01:05:26.438Z,10.47
2022-08-27T01:07:56.575Z,10.10
2022-08-27T01:10:25.353Z,11.00
2022-08-27T01:12:54.169Z,10.37
2022-08-27T01:15:22.366Z,10.30
2022-08-27T01:17:49.417Z,9.50
2022-08-27T01:20:23.182Z,9.53
2022-08-27T01:23:04.137Z,8.20
2022-08-27T01:25:31.111Z,8.40
2022-08-27T01:28:00.566Z,9.57
2022-08-27T01:30:27.639Z,8.77
2022-08-27T01:32:54.722Z,8.50
2022-08-27T01:35:21.941Z,7.93
2022-08-27T01:37:50.489Z,8.30
2022-08-27T01:40:20.289Z,7.63
2022-08-27T01:42:49.597Z,7.07
2022-08-27T01:45:24.581Z,6.00
2022-08-27T01:47:51.688Z,6.80
2022-08-27T01:50:23.338Z,5.90
2022-08-27T01:52:51.342Z,5.80
2022-08-27T01:55:20.608Z,6.20
2022-08-27T01:57:48.388Z,6.30
2022-08-27T02:00:25.125Z,7.03
2022-08-27T02:02:52.142Z,7.30
2022-08-27T02:05:19.227Z,6.97
2022-08-27T02:07:46.737Z,6.50
2022-08-27T02:10:19.481Z,7.10
2022-08-27T02:12:46.658Z,6.70
2022-08-27T02:15:13.990Z,5.70
2022-08-27T02:17:44.015Z,6.27
2022-08-27T02:20:11.133Z,6.20
2022-08-27T02:22:38.614Z,5.87
2022-08-27T02:25:07.094Z,6.57
2022-08-27T02:27:37.063Z,6.30
2022-08-27T02:30:04.624Z,6.37
2022-08-27T02:32:32.028Z,7.67
2022-08-27T02:34:59.267Z,6.90
2022-08-27T02:37:25.961Z,7.30
2022-08-27T02:39:54.621Z,7.10
2022-08-27T02:42:21.363Z,7.67
2022-08-27T02:44:48.395Z,6.97
2022-08-27T02:47:16.693Z,7.00
2022-08-27T02:49:44.391Z,7.10
2022-08-27T02:52:11.432Z,6.40
2022-08-27T02:54:38.204Z,6.80
2022-08-27T02:57:05.862Z,6.10
2022-08-27T02:59:32.510Z,5.73
2022-08-27T03:01:59.234Z,5.50
2022-08-27T03:04:27.911Z,6.63
2022-08-27T03:06:55.426Z,5.87
2022-08-27T03:09:22.110Z,5.30
2022-08-27T03:11:50.998Z,5.60
2022-08-27T03:14:17.599Z,5.67
2022-08-27T03:16:48.418Z,5.33
2022-08-27T03:19:19.804Z,5.17
2022-08-27T03:21:54.497Z,4.60
2022-08-27T03:24:21.729Z,5.17
2022-08-27T03:26:53.897Z,5.20
2022-08-27T03:29:20.990Z,5.33
2022-08-27T03:31:47.758Z,4.80
2022-08-27T03:34:19.773Z,4.37
2022-08-27T03:36:48.744Z,5.10
2022-08-27T03:39:15.416Z,5.00
2022-08-27T03:41:54.982Z,4.57
2022-08-27T03:44:23.854Z,4.60
2022-08-27T03:46:51.957Z,4.60
2022-08-27T03:49:21.382Z,4.50
2022-08-27T03:51:49.967Z,4.30
2022-08-27T03:54:16.767Z,4.43
2022-08-27T03:56:43.450Z,4.57
2022-08-27T03:59:10.155Z,4.43
2022-08-27T04:01:39.159Z,4.40
2022-08-27T04:04:06.055Z,4.00
2022-08-27T04:06:35.127Z,4.27
2022-08-27T04:09:02.321Z,3.77
2022-08-27T04:11:29.429Z,4.30
2022-08-27T04:13:56.452Z,4.03
2022-08-27T04:16:23.106Z,4.40
2022-08-27T04:18:49.856Z,4.10
2022-08-27T04:21:16.557Z,4.27
2022-08-27T04:23:43.296Z,3.90
2022-08-27T04:26:11.154Z,3.90
2022-08-27T04:28:39.296Z,3.63
2022-08-27T04:31:16.649Z,3.43
2022-08-27T04:33:50.652Z,3.40
2022-08-27T04:36:18.185Z,3.53
2022-08-27T04:38:44.902Z,3.50
2022-08-27T04:41:21.223Z,3.07
2022-08-27T04:43:58.929Z,3.00
2022-08-27T04:46:28.673Z,3.20
2022-08-27T04:48:57.394Z,2.40
2022-08-27T04:51:24.950Z,2.50
2022-08-27T04:53:51.848Z,2.73
2022-08-27T04:56:21.258Z,3.00
2022-08-27T04:58:48.475Z,2.60
2022-08-27T05:01:21.889Z,3.00
2022-08-27T05:03:48.921Z,2.80
2022-08-27T05:06:16.074Z,2.87
2022-08-27T05:08:42.791Z,3.27
2022-08-27T05:11:12.345Z,3.17
2022-08-27T05:13:39.815Z,2.80
2022-08-27T05:16:08.814Z,3.00
2022-08-27T05:18:42.367Z,2.97
2022-08-27T05:21:27.236Z,3.10
2022-08-27T05:23:57.332Z,2.40
2022-08-27T05:26:24.221Z,3.00
2022-08-27T05:28:51.401Z,3.00
2022-08-27T05:31:19.575Z,3.13
2022-08-27T05:33:46.946Z,2.87
2022-08-27T05:36:22.674Z,2.97
2022-08-27T05:38:50.332Z,3.00
2022-08-27T05:41:19.799Z,2.90
2022-08-27T05:43:50.191Z,3.00
2022-08-27T05:46:20.240Z,2.60
2022-08-27T05:48:48.059Z,2.70
2022-08-27T05:51:25.184Z,3.20
2022-08-27T05:53:56.446Z,2.67
2022-08-27T05:56:25.006Z,2.57
2022-08-27T05:59:10.198Z,2.50
2022-08-27T06:01:44.924Z,2.67
2022-08-27T06:04:11.891Z,2.63
2022-08-27T06:06:45.361Z,2.90
2022-08-27T06:09:14.537Z,2.80
2022-08-27T06:11:41.510Z,2.27
2022-08-27T06:14:11.438Z,2.57
2022-08-27T06:16:38.489Z,2.33
2022-08-27T06:19:06.719Z,2.73
2022-08-27T06:21:33.514Z,2.30
2022-08-27T06:24:00.443Z,2.70
2022-08-27T06:26:27.986Z,2.70
2022-08-27T06:29:03.508Z,2.37
2022-08-27T06:31:35.121Z,2.83
2022-08-27T06:34:07.474Z,2.27
2022-08-27T06:36:38.150Z,2.60
2022-08-27T06:39:13.276Z,2.40
2022-08-27T06:41:42.711Z,2.20
2022-08-27T06:44:22.247Z,2.27
2022-08-27T06:46:49.345Z,2.27
2022-08-27T06:49:16.092Z,2.67
2022-08-27T06:51:45.731Z,2.50
2022-08-27T06:54:29.364Z,2.80
2022-08-27T06:57:01.882Z,2.43
2022-08-27T06:59:28.504Z,2.30
2022-08-27T07:01:55.245Z,2.33
2022-08-27T07:04:30.741Z,3.00
2022-08-27T07:07:00.665Z,2.63
2022-08-27T07:09:27.330Z,3.20
2022-08-27T07:11:54.775Z,2.90
2022-08-27T07:14:21.953Z,2.60
2022-08-27T07:16:49.479Z,2.77
2022-08-27T07:19:19.214Z,3.00
2022-08-27T07:21:50.639Z,3.10
2022-08-27T07:24:17.687Z,2.80
2022-08-27T07:26:44.648Z,3.00
2022-08-27T07:29:15.226Z,2.53
2022-08-27T07:31:42.225Z,2.80
2022-08-27T07:34:08.918Z,3.17
2022-08-27T07:36:36.034Z,2.80
2022-08-27T07:39:02.777Z,2.90
2022-08-27T07:41:31.810Z,2.80
2022-08-27T07:44:20.932Z,2.60
2022-08-27T07:46:54.516Z,2.30
2022-08-27T07:49:22.238Z,2.93
2022-08-27T07:51:49.651Z,2.67
2022-08-27T07:54:16.879Z,2.60
2022-08-27T07:56:44.285Z,2.60
2022-08-27T07:59:24.223Z,2.53
2022-08-27T08:01:51.676Z,2.97
2022-08-27T08:04:20.451Z,2.70
2022-08-27T08:06:47.572Z,2.40
2022-08-27T08:09:14.623Z,2.57
2022-08-27T08:11:41.329Z,2.80
2022-08-27T08:14:07.967Z,2.60
2022-08-27T08:16:34.739Z,2.80
2022-08-27T08:19:02.061Z,2.50
2022-08-27T08:21:28.821Z,2.67
2022-08-27T08:23:55.576Z,2.63
2022-08-27T08:26:23.145Z,2.80
2022-08-27T08:28:49.781Z,2.87
2022-08-27T08:31:16.571Z,2.63
2022-08-27T08:33:43.356Z,2.93
2022-08-27T08:36:12.895Z,3.07
2022-08-27T08:38:40.416Z,2.67
2022-08-27T08:41:26.486Z,2.60
2022-08-27T08:43:53.832Z,3.10
2022-08-27T08:46:37.841Z,3.00
2022-08-27T08:49:23.654Z,3.27
2022-08-27T08:51:52.014Z,3.37
2022-08-27T08:54:21.166Z,3.03
2022-08-27T08:57:02.051Z,3.13
2022-08-27T08:59:34.709Z,3.20
2022-08-27T09:02:01.418Z,3.30
2022-08-27T09:04:30.618Z,3.30
2022-08-27T09:07:08.976Z,3.47
2022-08-27T09:10:12.020Z,3.50
2022-08-27T09:12:52.453Z,3.60
2022-08-27T09:15:26.133Z,2.90
2022-08-27T09:17:54.899Z,2.70
2022-08-27T09:20:27.422Z,3.23
2022-08-27T09:23:31.310Z,3.20
2022-08-27T09:26:00.922Z,2.60
2022-08-27T09:28:59.822Z,2.90
2022-08-27T09:32:01.847Z,3.10
2022-08-27T09:37:51.257Z,2.60
2022-08-27T09:40:32.303Z,3.10
2022-08-27T09:43:11.005Z,3.27
2022-08-27T09:45:57.624Z,2.83
2022-08-27T09:48:38.171Z,3.20
2022-08-27T09:51:21.719Z,3.17
2022-08-27T09:53:55.900Z,3.37
2022-08-27T09:56:43.615Z,3.00
2022-08-27T09:59:13.097Z,2.90
2022-08-27T10:02:18.372Z,2.90
2022-08-27T10:04:51.972Z,3.00
2022-08-27T10:07:33.324Z,3.33
2022-08-27T10:10:20.326Z,3.50
2022-08-27T10:12:51.857Z,3.17
2022-08-27T10:15:18.611Z,3.23
2022-08-27T10:18:07.851Z,3.33
2022-08-27T10:21:18.545Z,3.17
2022-08-27T10:24:02.261Z,3.40
2022-08-27T10:26:55.665Z,3.20
2022-08-27T10:33:13.837Z,3.30
2022-08-27T10:35:55.094Z,3.90
2022-08-27T10:39:13.925Z,3.77
2022-08-27T10:42:15.048Z,3.57
2022-08-27T10:45:31.052Z,3.87
2022-08-27T10:48:56.036Z,3.97
2022-08-27T10:52:03.228Z,4.10
2022-08-27T10:55:27.075Z,4.50
2022-08-27T11:03:58.427Z,3.70
2022-08-27T11:07:00.647Z,4.30
2022-08-27T11:09:57.983Z,3.73
2022-08-27T11:12:55.421Z,3.40
2022-08-27T11:18:59.607Z,4.73
2022-08-27T11:21:39.281Z,4.77
2022-08-27T11:28:52.414Z,3.90
2022-08-27T11:31:44.638Z,3.80
2022-08-27T11:41:16.624Z,3.60
2022-08-27T11:43:50.994Z,3.70
2022-08-27T11:50:20.586Z,4.27
2022-08-27T12:00:20.042Z,4.00
2022-08-27T12:03:29.401Z,4.10
2022-08-27T12:06:07.365Z,3.57
2022-08-27T12:09:26.219Z,3.77
2022-08-27T12:19:29.749Z,3.60
2022-08-27T12:22:11.936Z,3.20
2022-08-27T12:25:20.566Z,3.60
2022-08-27T12:28:35.715Z,3.40
2022-08-27T12:31:10.348Z,3.50
2022-08-27T12:33:55.221Z,3.47
2022-08-27T12:36:57.112Z,3.23
2022-08-27T12:39:37.140Z,3.03
2022-08-27T12:42:23.530Z,3.50
2022-08-27T12:48:12.698Z,3.77
2022-08-27T12:50:53.922Z,3.50
2022-08-27T12:54:05.284Z,3.83
2022-08-27T12:57:37.846Z,3.93
2022-08-27T13:04:32.630Z,3.83
2022-08-27T13:07:37.859Z,3.27
2022-08-27T13:10:19.468Z,3.57
2022-08-27T13:12:48.051Z,3.60
2022-08-27T13:18:14.735Z,3.63
2022-08-27T13:21:13.908Z,3.90
2022-08-27T13:23:55.495Z,3.90
2022-08-27T13:27:03.465Z,3.50
2022-08-27T13:30:22.879Z,3.30
2022-08-27T13:33:04.305Z,3.53
2022-08-27T13:35:49.646Z,3.13
2022-08-27T13:38:19.620Z,3.20
2022-08-27T13:41:27.788Z,3.60
2022-08-27T13:43:59.253Z,3.13
2022-08-27T13:46:32.117Z,3.60
2022-08-27T13:49:02.260Z,3.37
2022-08-27T13:51:34.766Z,3.73
2022-08-27T13:54:12.969Z,3.67
2022-08-27T13:56:53.407Z,3.80
2022-08-27T13:59:20.252Z,3.20
2022-08-27T14:02:10.251Z,3.10
2022-08-27T14:04:44.769Z,3.33
2022-08-27T14:07:13.640Z,3.13
2022-08-27T14:09:54.346Z,2.70
2022-08-27T14:12:32.730Z,3.50
2022-08-27T14:15:19.020Z,2.90
2022-08-27T14:17:46.925Z,3.23
2022-08-27T14:20:17.732Z,3.20
2022-08-27T14:22:50.875Z,3.00
2022-08-27T14:25:19.042Z,2.97
2022-08-27T14:27:57.184Z,3.23
2022-08-27T14:30:29.233Z,3.30
2022-08-27T14:33:00.795Z,3.43
2022-08-27T14:36:32.478Z,2.80
2022-08-27T14:38:59.756Z,3.27
2022-08-27T14:41:48.730Z,3.10
2022-08-27T14:44:17.301Z,3.03
2022-08-27T14:46:44.745Z,3.23
2022-08-27T14:49:15.301Z,3.07
2022-08-27T14:51:47.608Z,3.10
2022-08-27T14:54:14.278Z,2.97
2022-08-27T14:56:41.445Z,3.30
2022-08-27T14:59:08.175Z,3.13
2022-08-27T15:01:38.142Z,3.50
2022-08-27T15:04:05.745Z,3.30
2022-08-27T15:06:32.520Z,3.17
2022-08-27T15:09:00.439Z,2.90
2022-08-27T15:11:32.255Z,2.70
2022-08-27T15:14:14.441Z,3.33
2022-08-27T15:16:50.804Z,2.57
2022-08-27T15:19:17.480Z,3.13
2022-08-27T15:21:45.617Z,2.83
2022-08-27T15:24:26.178Z,2.60
2022-08-27T15:26:57.290Z,3.33
2022-08-27T15:29:24.779Z,3.10
2022-08-27T15:31:51.822Z,3.20
2022-08-27T15:34:18.738Z,3.03
2022-08-27T15:36:45.614Z,3.77
2022-08-27T15:39:12.559Z,3.00
2022-08-27T15:41:56.644Z,3.60
2022-08-27T15:44:27.106Z,3.00
2022-08-27T15:46:53.803Z,2.80
2022-08-27T15:49:20.817Z,3.00
2022-08-27T15:51:47.559Z,3.10
2022-08-27T15:54:14.260Z,2.83
2022-08-27T15:56:43.245Z,3.03
2022-08-27T15:59:09.967Z,2.90
2022-08-27T16:01:37.347Z,3.23
2022-08-27T16:04:04.980Z,2.77
2022-08-27T16:06:32.045Z,2.70
2022-08-27T16:09:01.873Z,2.57
2022-08-27T16:11:28.643Z,3.20
2022-08-27T16:13:55.856Z,3.20
2022-08-27T16:16:29.659Z,2.70
2022-08-27T16:19:00.238Z,3.10
2022-08-27T16:21:27.523Z,3.23
2022-08-27T16:23:54.148Z,2.73
2022-08-27T16:26:20.813Z,3.53
2022-08-27T16:28:49.869Z,2.73
2022-08-27T16:31:16.759Z,2.70
2022-08-27T16:33:43.751Z,2.63
2022-08-27T16:36:10.853Z,2.60
2022-08-27T16:38:37.599Z,2.50
2022-08-27T16:41:08.893Z,2.80
2022-08-27T16:43:35.619Z,2.30
2022-08-27T16:46:06.479Z,2.47
2022-08-27T16:49:01.494Z,2.87
2022-08-27T16:51:33.791Z,2.43
2022-08-27T16:54:08.206Z,2.60
2022-08-27T16:56:37.743Z,2.60
2022-08-27T16:59:04.814Z,2.60
2022-08-27T17:01:33.623Z,2.53
2022-08-27T17:04:16.116Z,2.80
2022-08-27T17:06:57.577Z,2.60
2022-08-27T17:09:34.945Z,2.40
2022-08-27T17:12:04.479Z,2.23
2022-08-27T17:14:37.958Z,2.87
2022-08-27T17:17:06.109Z,2.90
2022-08-27T17:19:34.813Z,3.00
2022-08-27T17:22:03.508Z,2.30
2022-08-27T17:24:30.404Z,2.73
2022-08-27T17:26:57.328Z,2.83
2022-08-27T17:29:24.027Z,3.00
2022-08-27T17:31:50.714Z,2.43
2022-08-27T17:34:23.232Z,3.27
2022-08-27T17:36:55.283Z,2.70
2022-08-27T17:39:22.300Z,2.90
2022-08-27T17:41:54.908Z,2.80
2022-08-27T17:44:33.279Z,2.50
2022-08-27T17:47:03.754Z,2.67
2022-08-27T17:49:33.301Z,2.70
2022-08-27T17:52:03.538Z,2.70
2022-08-27T17:54:32.634Z,2.83
2022-08-27T17:57:00.408Z,2.80
2022-08-27T17:59:27.139Z,2.63
2022-08-27T18:01:57.054Z,3.17
2022-08-27T18:04:26.457Z,2.50
2022-08-27T18:06:55.700Z,2.80
2022-08-27T18:09:24.427Z,2.30
2022-08-27T18:11:51.116Z,2.70
2022-08-27T18:14:18.588Z,2.40
2022-08-27T18:16:56.386Z,2.23
2022-08-27T18:19:23.268Z,2.70
2022-08-27T18:21:50.845Z,2.87
2022-08-27T18:24:19.794Z,2.83
2022-08-27T18:26:47.370Z,2.60
2022-08-27T18:29:15.128Z,2.63
2022-08-27T18:31:42.629Z,2.60
2022-08-27T18:34:09.256Z,2.30
2022-08-27T18:36:38.128Z,3.33
2022-08-27T18:39:04.828Z,3.10
2022-08-27T18:41:31.664Z,3.20
2022-08-27T18:43:58.928Z,2.40
2022-08-27T18:46:26.107Z,2.10
2022-08-27T18:48:55.572Z,2.33
2022-08-27T18:51:22.322Z,2.27
2022-08-27T18:53:49.026Z,2.30
2022-08-27T18:56:18.923Z,2.30
2022-08-27T18:58:46.688Z,2.40
2022-08-27T19:01:19.227Z,2.33
2022-08-27T19:03:48.722Z,2.30
2022-08-27T19:06:17.943Z,2.50
2022-08-27T19:08:48.906Z,2.40
2022-08-27T19:11:15.861Z,2.50
2022-08-27T19:13:42.816Z,2.27
2022-08-27T19:19:47.663Z,2.00
2022-08-27T19:22:30.499Z,3.27
2022-08-27T19:24:58.006Z,2.20
2022-08-27T19:27:25.733Z,2.13
2022-08-27T19:29:54.992Z,2.30
2022-08-27T19:32:22.112Z,2.93
2022-08-27T19:34:48.788Z,2.10
2022-08-27T19:37:27.396Z,2.77
2022-08-27T19:39:54.254Z,2.77
2022-08-27T19:42:21.135Z,2.27
2022-08-27T19:44:48.279Z,2.47
2022-08-27T19:47:16.349Z,2.60
2022-08-27T19:49:49.776Z,2.93
2022-08-27T19:52:16.525Z,2.50
2022-08-27T19:55:03.316Z,2.93
2022-08-27T19:57:30.038Z,2.80
2022-08-27T19:59:59.443Z,3.53
2022-08-27T20:02:26.449Z,3.43
2022-08-27T20:05:16.497Z,3.30
2022-08-27T20:07:40.094Z,3.23
2022-08-27T20:10:08.750Z,3.23
2022-08-27T20:12:45.711Z,2.90
2022-08-27T20:15:13.019Z,3.37
2022-08-27T20:17:41.269Z,3.60
2022-08-27T20:20:09.104Z,3.37
2022-08-27T20:22:35.931Z,3.60
2022-08-27T20:25:02.619Z,3.17
2022-08-27T20:27:29.276Z,3.47
2022-08-27T20:29:56.081Z,3.60
2022-08-27T20:32:25.721Z,3.80
2022-08-27T20:34:56.037Z,3.23
2022-08-27T20:37:22.742Z,3.23
2022-08-27T20:39:50.413Z,3.47
2022-08-27T20:42:19.603Z,3.87
2022-08-27T20:44:47.129Z,3.50
2022-08-27T20:47:13.872Z,4.17
2022-08-27T20:49:41.621Z,3.23
2022-08-27T20:52:11.467Z,3.93
2022-08-27T20:54:41.725Z,3.67
2022-08-27T20:57:11.431Z,3.80
2022-08-27T20:59:57.405Z,3.87
2022-08-27T21:02:26.338Z,3.63
2022-08-27T21:04:53.817Z,4.00
2022-08-27T21:07:21.326Z,4.30
2022-08-27T21:09:55.854Z,4.00
2022-08-27T21:12:29.540Z,3.77
2022-08-27T21:14:57.966Z,4.10
2022-08-27T21:17:26.937Z,4.10
2022-08-27T21:19:56.077Z,3.93
2022-08-27T21:22:23.550Z,4.10
2022-08-27T21:24:50.527Z,3.90
2022-08-27T21:27:18.447Z,3.73
2022-08-27T21:29:45.611Z,4.27
2022-08-27T21:32:15.827Z,3.97
2022-08-27T21:34:42.945Z,3.90
2022-08-27T21:37:11.468Z,3.93
2022-08-27T21:39:49.323Z,4.20
2022-08-27T21:42:16.091Z,4.43
2022-08-27T21:44:43.258Z,4.40
2022-08-27T21:47:15.995Z,4.00
2022-08-27T21:49:42.737Z,5.03
2022-08-27T21:52:09.485Z,4.40
2022-08-27T21:54:39.592Z,4.40
2022-08-27T21:57:06.932Z,4.90
2022-08-27T21:59:39.857Z,4.43
2022-08-27T22:02:23.038Z,4.40
2022-08-27T22:04:54.319Z,4.40
2022-08-27T22:07:20.975Z,4.80
2022-08-27T22:09:52.948Z,4.30
2022-08-27T22:12:19.612Z,4.77
2022-08-27T22:14:46.362Z,4.43
2022-08-27T22:17:15.804Z,5.03
2022-08-27T22:19:42.976Z,4.73
2022-08-27T22:22:09.680Z,4.00
2022-08-27T22:24:36.337Z,4.60
2022-08-27T22:27:03.010Z,5.00
2022-08-27T22:29:30.790Z,4.47
2022-08-27T22:31:57.493Z,4.90
2022-08-27T22:34:27.491Z,4.13
2022-08-27T22:36:56.727Z,4.60
2022-08-27T22:39:24.087Z,4.23
2022-08-27T22:41:52.054Z,4.80
2022-08-27T22:44:26.441Z,4.93
2022-08-27T22:46:53.211Z,4.60
2022-08-27T22:49:21.458Z,4.97
2022-08-27T22:51:49.426Z,4.80
2022-08-27T22:54:19.288Z,4.63
2022-08-27T22:56:45.932Z,5.40
2022-08-27T22:59:12.717Z,5.00
2022-08-27T23:01:39.504Z,4.60
2022-08-27T23:04:07.831Z,5.67
2022-08-27T23:06:34.719Z,4.70
2022-08-27T23:09:01.837Z,5.37
2022-08-27T23:11:31.624Z,5.77
2022-08-27T23:13:59.075Z,5.80
2022-08-27T23:16:25.821Z,5.17
2022-08-27T23:18:52.519Z,5.87
2022-08-27T23:21:19.159Z,5.57
2022-08-27T23:23:46.117Z,5.10
2022-08-27T23:26:31.285Z,5.03
2022-08-27T23:28:58.487Z,6.20
2022-08-27T23:31:29.715Z,5.73
2022-08-27T23:33:57.406Z,5.63
2022-08-27T23:36:24.079Z,4.73
2022-08-27T23:38:51.488Z,5.87
2022-08-27T23:41:18.219Z,5.63
2022-08-27T23:43:47.884Z,5.33
2022-08-27T23:46:14.539Z,5.53
2022-08-27T23:48:41.212Z,5.50
2022-08-27T23:51:09.340Z,6.00
2022-08-27T23:53:37.619Z,5.37
2022-08-27T23:56:05.029Z,5.57
2022-08-27T23:58:32.690Z,5.57
